Terminal Aerodrome Forecast
Issued by NWS

Home | Current Version | Previous Version | Text Only | Print | Product List | Glossary On
Versions: 1 2 3 4 5 6 7 8 9 10 11 12 13 14 15 16 17 18
416
FTUS44 KCRP 231142
TAFLRD
TAF
KLRD 231142Z 2312/2412 03007KT P6SM OVC012
     FM231500 09005KT P6SM OVC025
     FM231900 04008KT P6SM OVC035
     FM240000 01010KT P6SM VCTS OVC035CB
      TEMPO 2400/2403 -TSRA OVC025CB
     FM240300 36012KT P6SM BKN050=

USA.gov is the U.S. government's official web portal to all federal, state and local government web resources and services.